Time;durP1;ratioP1;P1;durP2;ratioP2;P2;SDS_P1;SDS_P2;PMS_P1;PMS_P2;Temp;Humidity;BMP_temperature;BMP_pressure;BME280_temperature;BME280_humidity;BME280_pressure;Samples;Min_cycle;Max_cycle;Signal;HPM_P1;HPM_P2
2021/07/10 00:00:48;;;;;;;4.82;4.50;;;;;;;17.14;91.35;96124.88;5036171;28;20420;-82
2021/07/10 00:03:15;;;;;;;5.25;4.72;;;;;;;17.07;91.10;96111.09;5036490;28;20206;-84
2021/07/10 00:05:42;;;;;;;5.10;4.53;;;;;;;16.97;91.54;96115.91;5036711;28;20202;-82
2021/07/10 00:08:09;;;;;;;5.30;4.90;;;;;;;17.02;91.34;96108.31;5036433;28;20209;-85
2021/07/10 00:10:36;;;;;;;5.30;4.80;;;;;;;16.98;91.42;96107.09;5035828;28;20225;-83
2021/07/10 00:13:02;;;;;;;5.13;4.65;;;;;;;16.90;91.44;96121.16;5035830;28;20202;-84
2021/07/10 00:15:29;;;;;;;5.38;4.88;;;;;;;16.88;92.02;96115.34;5035833;28;20209;-82
2021/07/10 00:17:56;;;;;;;5.28;4.78;;;;;;;16.90;91.58;96104.75;5036036;28;20209;-84
2021/07/10 00:20:23;;;;;;;5.13;4.65;;;;;;;16.84;91.13;96100.34;5036228;28;20226;-85
2021/07/10 00:22:51;;;;;;;4.82;4.32;;;;;;;16.89;90.81;96103.94;5035369;28;20194;-84
2021/07/10 00:25:19;;;;;;;4.80;4.40;;;;;;;16.90;90.46;96089.13;5036471;28;20202;-83
2021/07/10 00:27:54;;;;;;;4.75;4.38;;;;;;;16.95;90.35;96088.50;5035704;28;20248;-83
2021/07/10 00:30:22;;;;;;;4.70;4.40;;;;;;;16.83;89.74;96093.53;5035534;28;20708;-83
2021/07/10 00:32:50;;;;;;;5.10;4.60;;;;;;;16.82;89.78;96087.53;5035644;28;20237;-84
2021/07/10 00:35:17;;;;;;;4.50;4.10;;;;;;;16.86;89.62;96082.72;5032275;28;20190;-84
2021/07/10 00:37:44;;;;;;;4.43;4.03;;;;;;;16.84;89.04;96079.53;5017083;28;20202;-84
2021/07/10 00:40:13;;;;;;;4.47;4.13;;;;;;;16.79;89.30;96076.72;5015535;28;20226;-83
2021/07/10 00:42:40;;;;;;;5.05;4.65;;;;;;;16.68;90.47;96075.56;5015954;28;20198;-84
2021/07/10 00:45:09;;;;;;;5.10;4.25;;;;;;;16.66;90.33;96074.16;5020266;28;20207;-83
2021/07/10 00:47:36;;;;;;;5.20;4.70;;;;;;;16.63;89.69;96075.34;5019255;28;20210;-83
2021/07/10 00:50:08;;;;;;;4.65;4.30;;;;;;;16.61;89.90;96077.31;5019716;28;20213;-85
2021/07/10 00:52:34;;;;;;;4.88;4.47;;;;;;;16.62;89.56;96071.13;5019098;28;20215;-85
2021/07/10 00:55:01;;;;;;;4.47;4.07;;;;;;;16.56;89.66;96069.31;5019817;28;20225;-82
2021/07/10 00:57:29;;;;;;;5.28;4.00;;;;;;;16.55;90.39;96065.13;5019076;28;20207;-85
2021/07/10 00:59:56;;;;;;;4.82;4.47;;;;;;;16.54;90.17;96055.75;5018425;28;20203;-84
2021/07/10 01:02:22;;;;;;;4.70;4.20;;;;;;;16.55;89.97;96063.31;5018998;28;20206;-85
2021/07/10 01:04:49;;;;;;;6.13;4.40;;;;;;;16.49;89.78;96058.97;5018689;28;20203;-83
2021/07/10 01:07:15;;;;;;;4.93;4.43;;;;;;;16.40;89.53;96061.94;5019302;28;20203;-84
2021/07/10 01:09:42;;;;;;;4.68;4.30;;;;;;;16.44;89.85;96058.75;5019276;28;20205;-85
2021/07/10 01:12:09;;;;;;;4.97;4.57;;;;;;;16.43;88.85;96057.16;5019009;28;20223;-82
2021/07/10 01:14:37;;;;;;;4.88;4.47;;;;;;;16.38;89.31;96050.94;5018813;28;20207;-83
2021/07/10 01:17:03;;;;;;;4.68;4.30;;;;;;;16.40;89.43;96041.94;5018354;28;20207;-85
2021/07/10 01:19:30;;;;;;;4.25;3.95;;;;;;;16.34;89.08;96049.78;5018724;28;20298;-84
2021/07/10 01:21:59;;;;;;;7.65;4.68;;;;;;;16.33;89.47;96050.78;5018554;28;20218;-84
2021/07/10 01:24:26;;;;;;;5.07;4.72;;;;;;;16.36;89.40;96053.75;5018372;28;20264;-84
2021/07/10 01:26:53;;;;;;;5.70;4.30;;;;;;;16.33;89.53;96042.97;5018040;28;20874;-83
2021/07/10 01:29:20;;;;;;;4.95;4.47;;;;;;;16.35;89.17;96041.78;5018478;28;20202;-84
2021/07/10 01:31:47;;;;;;;4.90;4.50;;;;;;;16.37;88.73;96041.56;5017716;28;20235;-85
2021/07/10 01:34:13;;;;;;;5.05;4.55;;;;;;;16.38;88.63;96040.56;5017503;28;20670;-83
2021/07/10 01:36:42;;;;;;;4.15;3.85;;;;;;;16.32;88.69;96036.19;5018225;28;20214;-83
2021/07/10 01:39:10;;;;;;;5.40;4.13;;;;;;;16.24;88.21;96030.19;5018137;28;20195;-85
2021/07/10 01:41:44;;;;;;;5.25;4.10;;;;;;;16.17;88.48;96031.97;5016898;28;20217;-85
2021/07/10 01:44:12;;;;;;;4.55;4.15;;;;;;;16.08;89.75;96021.97;5017660;28;20202;-85
2021/07/10 01:46:39;;;;;;;6.57;4.70;;;;;;;16.00;90.14;96015.19;5018255;28;20199;-85
2021/07/10 01:49:06;;;;;;;4.57;4.18;;;;;;;16.03;89.97;96014.78;5018558;28;20670;-82
2021/07/10 01:51:32;;;;;;;4.68;4.30;;;;;;;16.14;89.71;96013.41;5017690;28;20239;-85
2021/07/10 01:53:59;;;;;;;4.60;4.30;;;;;;;16.14;88.95;96016.00;5017794;28;20198;-84
2021/07/10 01:56:27;;;;;;;4.95;4.45;;;;;;;16.10;89.16;96013.00;5016653;28;20201;-84
2021/07/10 01:58:54;;;;;;;5.53;4.57;;;;;;;16.08;88.95;96012.41;5017248;28;20710;-83
2021/07/10 02:01:21;;;;;;;4.72;4.32;;;;;;;16.10;88.85;96007.81;5017105;28;20234;-85
2021/07/10 02:03:47;;;;;;;5.30;4.80;;;;;;;16.10;88.65;96007.81;5016633;28;20203;-83
2021/07/10 02:06:13;;;;;;;5.30;4.80;;;;;;;16.08;89.02;95998.59;5016523;28;20198;-84
2021/07/10 02:08:40;;;;;;;5.00;4.63;;;;;;;16.06;89.07;95995.41;5017194;28;20620;-82
2021/07/10 02:11:06;;;;;;;4.60;4.30;;;;;;;16.04;88.94;95998.19;5017112;28;20226;-85
2021/07/10 02:13:35;;;;;;;4.88;4.40;;;;;;;16.08;89.03;95991.63;5016552;28;20226;-84
2021/07/10 02:16:02;;;;;;;4.95;4.45;;;;;;;16.14;88.97;95990.03;5016683;28;20207;-84
2021/07/10 02:18:29;;;;;;;4.28;3.97;;;;;;;16.20;88.17;95999.59;5016822;28;20199;-84
2021/07/10 02:20:55;;;;;;;6.03;4.50;;;;;;;16.12;87.58;95995.41;5016874;28;20230;-85
2021/07/10 02:23:21;;;;;;;4.68;4.28;;;;;;;16.10;87.40;95987.03;5016560;28;20810;-84
2021/07/10 02:25:48;;;;;;;4.80;4.40;;;;;;;16.08;87.98;95991.63;5016892;28;20203;-84
2021/07/10 02:28:15;;;;;;;5.45;4.55;;;;;;;16.05;87.89;95988.59;5016582;28;20203;-85
2021/07/10 02:30:43;;;;;;;5.18;4.40;;;;;;;16.02;88.51;95987.22;5016700;28;20223;-85
2021/07/10 02:33:09;;;;;;;4.30;4.00;;;;;;;16.04;87.61;95984.41;5016594;28;20225;-84
2021/07/10 02:35:36;;;;;;;5.25;4.10;;;;;;;15.85;88.50;95968.63;5016602;28;20203;-85
2021/07/10 02:38:03;;;;;;;4.75;4.05;;;;;;;15.74;89.53;95965.84;5029213;28;20198;-83
2021/07/10 02:40:29;;;;;;;7.85;4.85;;;;;;;15.60;90.47;95962.41;5030069;28;20215;-84
2021/07/10 02:42:56;;;;;;;4.90;4.40;;;;;;;15.59;90.81;95960.03;5015066;28;20198;-85
2021/07/10 02:45:23;;;;;;;5.60;5.15;;;;;;;15.48;90.92;95949.22;5015898;28;20690;-83
2021/07/10 02:47:51;;;;;;;5.60;5.10;;;;;;;15.41;91.63;95945.00;5015431;28;20213;-84
2021/07/10 02:50:19;;;;;;;5.10;4.67;;;;;;;15.54;91.55;95958.81;5028578;28;20210;-85
2021/07/10 02:52:46;;;;;;;5.00;4.60;;;;;;;15.59;91.25;95947.06;5035202;28;20222;-83
2021/07/10 02:55:13;;;;;;;5.00;4.60;;;;;;;15.70;90.73;95951.66;5035210;28;20574;-84
2021/07/10 02:57:40;;;;;;;5.20;4.80;;;;;;;15.75;90.08;95952.66;5035249;28;20210;-82
2021/07/10 03:00:10;;;;;;;4.33;4.03;;;;;;;15.84;89.35;95954.06;5037091;28;20205;-83
2021/07/10 03:02:37;;;;;;;4.65;4.25;;;;;;;15.78;88.83;95947.06;5037316;28;20209;-82
2021/07/10 03:05:06;;;;;;;4.93;4.53;;;;;;;15.74;88.43;95956.25;5035695;28;20202;-85
2021/07/10 03:07:33;;;;;;;4.88;4.47;;;;;;;15.72;88.76;95957.44;5035329;28;20209;-85
2021/07/10 03:10:00;;;;;;;5.13;4.72;;;;;;;15.75;88.80;95957.06;5035338;28;20565;-85
2021/07/10 03:12:26;;;;;;;4.40;4.00;;;;;;;15.79;88.15;95948.66;5035115;28;20229;-85
2021/07/10 03:14:53;;;;;;;4.25;3.85;;;;;;;15.73;87.72;95951.25;5036964;28;20210;-82
2021/07/10 03:17:19;;;;;;;4.27;3.97;;;;;;;15.75;87.56;95955.25;5037135;28;20205;-85
2021/07/10 03:19:46;;;;;;;5.47;4.28;;;;;;;15.73;87.90;95957.25;5036462;28;20549;-84
2021/07/10 03:22:14;;;;;;;5.05;4.40;;;;;;;15.72;88.32;95960.03;5036736;28;20222;-84
2021/07/10 03:24:40;;;;;;;4.85;4.35;;;;;;;15.69;88.35;95958.66;5036252;28;20574;-83
2021/07/10 03:27:08;;;;;;;4.75;4.35;;;;;;;15.69;88.65;95963.84;5034939;28;20205;-84
2021/07/10 03:29:34;;;;;;;4.38;4.07;;;;;;;15.67;87.84;95967.63;5036475;28;20206;-86
2021/07/10 03:32:01;;;;;;;4.15;3.80;;;;;;;15.72;87.67;95973.03;5035143;28;20241;-86
2021/07/10 03:34:27;;;;;;;4.38;3.97;;;;;;;15.70;86.67;95957.66;5035981;28;20209;-85
2021/07/10 03:36:56;;;;;;;5.57;4.28;;;;;;;15.65;86.97;95960.03;5029899;28;20203;-84
2021/07/10 03:39:25;;;;;;;5.00;3.90;;;;;;;15.70;87.39;95962.84;5015736;28;20206;-84
2021/07/10 03:41:51;;;;;;;4.32;3.85;;;;;;;15.71;86.38;95961.03;5016706;28;20244;-84
2021/07/10 03:44:18;;;;;;;7.07;4.43;;;;;;;15.69;86.79;95955.25;5017983;28;20203;-84
2021/07/10 03:46:45;;;;;;;5.50;4.38;;;;;;;15.61;86.76;95952.84;5026554;28;20210;-84
2021/07/10 03:49:12;;;;;;;4.70;4.30;;;;;;;15.59;87.30;95954.84;5016813;28;20202;-83
2021/07/10 03:51:41;;;;;;;4.43;4.03;;;;;;;15.63;87.11;95953.44;5016124;28;20225;-84
2021/07/10 03:54:08;;;;;;;3.97;3.67;;;;;;;15.65;87.57;95954.84;5016361;28;20227;-83
2021/07/10 03:56:36;;;;;;;7.67;4.30;;;;;;;15.92;100.00;95952.25;5013278;28;20225;-86
2021/07/10 03:59:02;;;;;;;14.60;4.95;;;;;;;16.39;100.00;95956.38;5011662;28;20678;-82
2021/07/10 04:01:29;;;;;;;4.30;3.97;;;;;;;16.43;86.28;95947.19;5015184;28;20227;-86
2021/07/10 04:03:55;;;;;;;6.07;4.00;;;;;;;16.31;86.55;95946.22;5016503;28;20209;-85
2021/07/10 04:06:22;;;;;;;4.60;4.20;;;;;;;16.16;85.95;95947.22;5016556;28;20209;-86
2021/07/10 04:08:48;;;;;;;4.28;3.90;;;;;;;16.02;86.13;95942.25;5016474;28;20199;-84
2021/07/10 04:11:14;;;;;;;4.63;4.22;;;;;;;15.99;87.02;95950.44;5016048;28;20227;-86
2021/07/10 04:13:42;;;;;;;4.28;3.60;;;;;;;15.95;87.84;95944.06;5015701;28;20223;-86
2021/07/10 04:16:09;;;;;;;4.20;3.80;;;;;;;15.98;87.83;95939.25;5016517;28;20578;-85
2021/07/10 04:18:36;;;;;;;4.70;4.30;;;;;;;16.03;87.41;95951.63;5015464;28;20206;-85
2021/07/10 04:21:03;;;;;;;5.10;3.80;;;;;;;16.06;86.91;95946.84;5015873;28;20227;-85
2021/07/10 04:23:30;;;;;;;4.60;4.03;;;;;;;16.14;86.69;95948.44;5015733;28;20229;-85
2021/07/10 04:25:56;;;;;;;4.82;4.03;;;;;;;16.13;86.77;95950.25;5015892;28;20202;-86
2021/07/10 04:28:23;;;;;;;4.68;4.00;;;;;;;16.18;86.73;95942.63;5015866;28;20198;-85
2021/07/10 04:30:51;;;;;;;4.20;3.90;;;;;;;16.19;87.18;95939.03;5015629;28;20245;-83
2021/07/10 04:33:17;;;;;;;4.13;3.83;;;;;;;16.05;87.69;95936.66;5016237;28;20589;-84
2021/07/10 04:35:44;;;;;;;5.60;4.10;;;;;;;16.06;88.26;95939.06;5016216;28;20195;-85
2021/07/10 04:38:10;;;;;;;4.38;3.97;;;;;;;16.11;88.67;95934.06;5016727;28;20210;-85
2021/07/10 04:40:37;;;;;;;4.47;4.18;;;;;;;16.16;88.56;95941.25;5015995;28;20233;-86
2021/07/10 04:43:04;;;;;;;4.55;4.00;;;;;;;16.24;88.57;95936.63;5016065;28;20294;-83
2021/07/10 04:45:31;;;;;;;5.22;4.20;;;;;;;16.27;88.45;95945.03;5015770;28;20206;-84
2021/07/10 04:47:59;;;;;;;5.10;4.60;;;;;;;16.36;88.24;95944.59;5015879;28;20206;-84
2021/07/10 04:50:25;;;;;;;4.65;4.05;;;;;;;16.48;87.86;95939.59;5015837;28;20226;-85
2021/07/10 04:52:52;;;;;;;4.47;4.07;;;;;;;16.53;88.16;95942.38;5015233;28;20219;-84
2021/07/10 04:55:18;;;;;;;4.43;4.10;;;;;;;16.51;89.45;95947.78;5015794;28;20213;-85
2021/07/10 04:57:46;;;;;;;4.65;4.25;;;;;;;16.54;90.28;95939.56;5015870;28;20207;-85
2021/07/10 05:00:14;;;;;;;4.88;4.30;;;;;;;16.58;90.35;95942.53;5015711;28;20314;-85
2021/07/10 05:02:41;;;;;;;4.30;4.00;;;;;;;16.58;91.16;95942.53;5015715;28;20210;-86
2021/07/10 05:05:10;;;;;;;4.30;3.90;;;;;;;16.67;90.85;95938.75;5016332;28;20209;-84
2021/07/10 05:07:39;;;;;;;5.13;4.63;;;;;;;16.73;91.11;95932.75;5015445;28;20206;-84
2021/07/10 05:10:07;;;;;;;4.28;3.97;;;;;;;16.86;90.42;95937.88;5015186;28;20199;-84
2021/07/10 05:12:33;;;;;;;4.13;3.83;;;;;;;17.01;89.53;95939.41;5015361;28;20223;-83
2021/07/10 05:15:00;;;;;;;4.85;4.28;;;;;;;17.07;89.94;95935.97;5015765;28;20206;-84
2021/07/10 05:17:27;;;;;;;4.75;4.35;;;;;;;17.03;89.90;95937.41;5015897;28;20202;-85
2021/07/10 05:19:53;;;;;;;5.10;4.70;;;;;;;17.03;90.21;95943.41;5015761;28;20210;-83
2021/07/10 05:22:21;;;;;;;4.38;4.00;;;;;;;17.16;89.27;95942.53;5016515;28;20199;-86
2021/07/10 05:24:47;;;;;;;4.75;4.40;;;;;;;17.24;88.54;95944.91;5016354;28;20206;-86
2021/07/10 05:27:14;;;;;;;5.20;4.80;;;;;;;17.31;88.39;95942.25;5016653;28;20203;-83
2021/07/10 05:29:41;;;;;;;4.47;4.07;;;;;;;17.41;87.52;95932.19;5016400;28;20206;-85
2021/07/10 05:32:08;;;;;;;4.70;4.40;;;;;;;17.34;86.76;95941.81;5020023;28;20231;-86
2021/07/10 05:34:35;;;;;;;4.68;4.38;;;;;;;17.25;86.91;95947.28;5020465;28;20613;-86
2021/07/10 05:37:01;;;;;;;6.07;5.00;;;;;;;17.21;88.44;95943.50;5020439;28;20203;-84
2021/07/10 05:39:29;;;;;;;4.72;4.32;;;;;;;17.32;88.92;95944.63;5020616;28;20203;-86
2021/07/10 05:41:55;;;;;;;5.18;4.78;;;;;;;17.37;88.37;95934.41;5020102;28;20230;-86
2021/07/10 05:44:22;;;;;;;4.70;4.30;;;;;;;17.38;87.77;95943.81;5019655;28;20198;-86
2021/07/10 05:46:48;;;;;;;4.90;4.53;;;;;;;17.47;88.38;95936.56;5019395;28;20666;-84
2021/07/10 05:49:15;;;;;;;4.70;4.30;;;;;;;17.41;87.65;95946.00;5019329;28;20721;-85
2021/07/10 05:51:41;;;;;;;4.70;4.30;;;;;;;17.48;86.19;95949.34;5018492;28;20223;-85
2021/07/10 05:54:08;;;;;;;4.72;4.32;;;;;;;17.47;84.99;95952.19;5018598;28;20234;-86
2021/07/10 05:56:36;;;;;;;4.65;4.35;;;;;;;17.56;83.83;95950.91;5018812;28;20211;-85
2021/07/10 05:59:02;;;;;;;5.70;4.10;;;;;;;17.52;85.87;95955.72;5020202;28;20214;-86
2021/07/10 06:01:29;;;;;;;4.55;4.10;;;;;;;17.56;84.59;95959.50;5019568;28;20748;-86
2021/07/10 06:03:55;;;;;;;5.05;4.50;;;;;;;17.59;87.00;95955.69;5019679;28;20203;-82
2021/07/10 06:06:21;;;;;;;5.10;4.70;;;;;;;17.68;84.71;95951.84;5019748;28;20697;-84
2021/07/10 06:08:48;;;;;;;5.55;5.15;;;;;;;17.67;82.94;95954.69;5020480;28;20225;-85
2021/07/10 06:11:15;;;;;;;6.03;5.43;;;;;;;17.73;83.78;95954.59;5019564;28;20289;-85
2021/07/10 06:13:43;;;;;;;5.90;5.40;;;;;;;17.81;85.94;95948.34;5019816;28;20254;-85
2021/07/10 06:16:10;;;;;;;5.50;5.05;;;;;;;17.78;85.23;95956.59;5019580;28;20218;-84
2021/07/10 06:18:36;;;;;;;6.75;5.45;;;;;;;17.85;85.40;95949.53;5018936;28;20226;-85
2021/07/10 06:21:03;;;;;;;6.25;5.72;;;;;;;17.90;85.51;95944.44;5018513;28;20227;-86
2021/07/10 06:23:29;;;;;;;5.72;5.32;;;;;;;17.87;85.83;95950.91;5019402;28;20203;-83
2021/07/10 06:25:56;;;;;;;6.68;6.07;;;;;;;17.92;86.67;95948.44;5018933;28;20742;-84
2021/07/10 06:28:22;;;;;;;10.98;6.63;;;;;;;18.00;86.35;95947.38;5019027;28;20201;-86
2021/07/10 06:30:50;;;;;;;7.75;6.00;;;;;;;18.07;86.83;95950.75;5018432;28;20230;-85
2021/07/10 06:33:17;;;;;;;6.85;6.25;;;;;;;18.14;84.99;95955.88;5017864;28;20219;-86
2021/07/10 06:35:43;;;;;;;7.15;6.13;;;;;;;18.07;86.62;95948.16;5018612;28;20207;-85
2021/07/10 06:38:10;;;;;;;7.53;5.68;;;;;;;18.07;84.46;95957.75;5018321;28;20210;-85
2021/07/10 06:40:36;;;;;;;6.38;5.65;;;;;;;18.11;85.26;95951.09;5017444;28;20219;-84
2021/07/10 06:43:03;;;;;;;6.10;5.50;;;;;;;18.22;85.85;95948.59;5017430;28;20294;-86
2021/07/10 06:45:29;;;;;;;5.72;5.22;;;;;;;18.34;88.35;95955.69;5017212;28;20221;-86
2021/07/10 06:48:01;;;;;;;6.10;5.60;;;;;;;18.45;84.56;95958.41;5016668;28;20210;-84
2021/07/10 06:50:29;;;;;;;6.20;5.70;;;;;;;18.45;84.91;95955.00;5017993;28;20254;-86
2021/07/10 06:52:56;;;;;;;5.97;5.38;;;;;;;18.55;82.90;95955.28;5017729;28;20249;-86
2021/07/10 06:55:22;;;;;;;5.57;5.13;;;;;;;18.63;84.11;95952.44;5018209;28;20203;-84
2021/07/10 06:57:49;;;;;;;5.88;5.43;;;;;;;18.70;82.07;95953.13;5017828;28;20202;-86
2021/07/10 07:00:17;;;;;;;5.72;5.22;;;;;;;18.74;81.44;95946.47;5018642;28;20568;-84
2021/07/10 07:02:44;;;;;;;4.90;4.43;;;;;;;18.86;83.03;95957.75;5017456;28;20214;-85
2021/07/10 07:05:13;;;;;;;5.35;4.95;;;;;;;18.94;81.62;95949.66;5017661;28;20198;-86
2021/07/10 07:07:40;;;;;;;5.40;4.75;;;;;;;18.90;81.48;95956.31;5017767;28;20674;-86
2021/07/10 07:10:08;;;;;;;5.88;5.40;;;;;;;18.86;80.43;95946.53;5018110;28;20195;-85
2021/07/10 07:12:35;;;;;;;6.25;5.43;;;;;;;18.81;81.22;95946.41;5018775;28;20226;-85
2021/07/10 07:15:02;;;;;;;6.00;5.50;;;;;;;18.75;80.90;95947.28;5018334;28;20230;-84
2021/07/10 07:17:29;;;;;;;6.07;5.47;;;;;;;18.80;81.86;95939.59;5017795;28;20199;-84
2021/07/10 07:19:55;;;;;;;5.63;5.13;;;;;;;18.88;81.37;95937.47;5017616;28;20646;-84
2021/07/10 07:22:23;;;;;;;5.40;4.95;;;;;;;19.04;82.48;95928.25;5017442;28;20209;-85
2021/07/10 07:24:49;;;;;;;5.95;5.53;;;;;;;19.04;82.72;95924.84;5018121;28;20205;-85
2021/07/10 07:27:16;;;;;;;5.00;4.60;;;;;;;19.13;80.40;95926.13;5016856;28;20222;-86
2021/07/10 07:29:42;;;;;;;5.68;5.18;;;;;;;19.07;81.09;95933.00;5018397;28;20213;-85
2021/07/10 07:32:09;;;;;;;6.00;5.40;;;;;;;19.14;79.29;95925.91;5016710;28;20775;-84
2021/07/10 07:34:36;;;;;;;6.18;5.70;;;;;;;19.12;81.72;95919.31;5017923;28;20229;-86
2021/07/10 07:37:03;;;;;;;5.07;4.68;;;;;;;19.22;84.53;95917.78;5017612;28;20210;-86
2021/07/10 07:39:30;;;;;;;5.70;5.20;;;;;;;19.39;82.15;95924.97;5016945;28;20230;-85
2021/07/10 07:41:57;;;;;;;5.38;4.97;;;;;;;19.41;79.32;95908.06;5017420;28;20222;-83
2021/07/10 07:44:23;;;;;;;5.45;4.95;;;;;;;19.52;79.97;95911.75;5018827;28;20194;-84
2021/07/10 07:46:50;;;;;;;5.88;5.28;;;;;;;19.52;77.09;95912.53;5018635;28;20199;-86
2021/07/10 07:49:17;;;;;;;6.32;4.63;;;;;;;19.59;77.86;95915.84;5018254;28;20209;-86
2021/07/10 07:51:43;;;;;;;5.80;5.22;;;;;;;19.66;79.29;95913.13;5017929;28;20302;-85
2021/07/10 07:54:10;;;;;;;5.80;5.30;;;;;;;19.67;77.48;95909.47;5017744;28;20223;-85
2021/07/10 07:56:37;;;;;;;5.38;4.93;;;;;;;19.82;80.11;95916.91;5018352;28;20203;-83
2021/07/10 07:59:05;;;;;;;5.20;4.70;;;;;;;19.90;76.47;95909.50;5018479;28;20286;-83
2021/07/10 08:01:32;;;;;;;5.55;5.05;;;;;;;19.98;76.77;95909.19;5018139;28;20231;-84
2021/07/10 08:03:58;;;;;;;5.47;4.97;;;;;;;20.05;75.67;95909.06;5017933;28;20207;-85
2021/07/10 08:06:24;;;;;;;5.60;5.10;;;;;;;20.06;74.45;95904.63;5017590;28;20206;-86
2021/07/10 08:08:51;;;;;;;5.07;4.68;;;;;;;20.12;75.27;95904.53;5018134;28;20207;-86
2021/07/10 08:11:17;;;;;;;5.07;4.68;;;;;;;20.24;73.65;95897.44;5016846;28;20219;-84
2021/07/10 08:13:46;;;;;;;5.20;4.80;;;;;;;20.40;73.84;95900.44;5018452;28;20791;-85
2021/07/10 08:16:12;;;;;;;6.00;5.50;;;;;;;20.38;73.60;95899.88;5018282;28;20205;-85
2021/07/10 08:18:39;;;;;;;5.82;5.32;;;;;;;20.56;74.04;95887.44;5017656;28;20210;-85
2021/07/10 08:21:07;;;;;;;4.80;4.43;;;;;;;20.59;73.61;95894.81;5017613;28;20227;-86
2021/07/10 08:23:44;;;;;;;6.28;4.80;;;;;;;20.69;72.29;95883.75;5017529;28;20243;-84
2021/07/10 08:26:12;;;;;;;4.55;4.20;;;;;;;20.79;72.28;95883.94;5017257;28;20213;-85
2021/07/10 08:28:39;;;;;;;4.80;4.40;;;;;;;20.79;70.88;95888.38;5018535;28;20203;-85
2021/07/10 08:31:07;;;;;;;5.07;4.68;;;;;;;20.84;69.87;95885.88;5017697;28;20260;-85
2021/07/10 08:33:33;;;;;;;4.93;4.53;;;;;;;20.87;70.78;95875.72;5018192;28;20717;-86
2021/07/10 08:36:00;;;;;;;5.05;4.65;;;;;;;21.08;70.57;95870.84;5018160;28;20198;-85
2021/07/10 08:38:27;;;;;;;4.40;4.10;;;;;;;21.20;70.09;95874.22;5018464;28;20202;-85
2021/07/10 08:40:54;;;;;;;4.82;4.30;;;;;;;21.33;70.28;95863.47;5018167;28;20223;-85
2021/07/10 08:43:21;;;;;;;4.25;3.83;;;;;;;21.46;68.84;95871.03;5018035;28;20203;-83
2021/07/10 08:45:50;;;;;;;5.05;4.65;;;;;;;21.52;69.93;95856.97;5017994;28;20214;-86
2021/07/10 08:48:18;;;;;;;4.68;4.38;;;;;;;21.63;68.06;95871.81;5017812;28;20587;-85
2021/07/10 08:50:45;;;;;;;5.38;4.70;;;;;;;21.62;69.31;95866.81;5017679;28;20321;-85
2021/07/10 08:53:12;;;;;;;5.30;4.80;;;;;;;21.80;69.28;95863.94;5017462;28;20214;-86
2021/07/10 08:55:38;;;;;;;5.07;4.65;;;;;;;21.89;68.93;95862.53;5016693;28;20219;-86
2021/07/10 08:58:05;;;;;;;8.65;5.57;;;;;;;21.72;67.13;95869.59;5017484;28;20206;-85
2021/07/10 09:00:34;;;;;;;5.53;5.10;;;;;;;21.46;67.69;95868.41;5017913;28;20219;-84
2021/07/10 09:03:03;;;;;;;5.47;5.07;;;;;;;21.49;69.90;95869.75;5017806;28;20197;-84
2021/07/10 09:05:31;;;;;;;4.90;4.50;;;;;;;21.59;68.74;95862.84;5020768;28;20210;-86
2021/07/10 09:08:19;;;;;;;5.20;4.70;;;;;;;21.67;68.47;95856.41;5021646;28;20207;-86
2021/07/10 09:10:49;;;;;;;7.70;4.97;;;;;;;21.93;68.75;95852.34;5021542;28;20233;-86
2021/07/10 09:13:16;;;;;;;5.50;5.00;;;;;;;22.12;67.09;95847.66;5022186;28;20202;-85
2021/07/10 09:15:44;;;;;;;5.65;5.15;;;;;;;21.92;65.85;95838.44;5021824;28;20884;-85
2021/07/10 09:18:12;;;;;;;5.07;4.68;;;;;;;21.62;66.84;95840.59;5021441;28;20211;-86
2021/07/10 09:20:42;;;;;;;4.70;4.30;;;;;;;21.89;66.59;95825.03;5021548;28;20610;-86
2021/07/10 09:23:25;;;;;;;4.63;4.30;;;;;;;22.36;67.35;95828.00;5021438;28;20210;-85
2021/07/10 09:25:52;;;;;;;4.10;3.80;;;;;;;22.10;64.86;95831.38;5020571;28;20195;-85
2021/07/10 09:28:27;;;;;;;4.20;3.90;;;;;;;22.21;65.34;95826.00;5021208;28;20202;-85
2021/07/10 09:30:54;;;;;;;5.13;4.60;;;;;;;22.57;66.69;95836.91;5020894;28;20768;-85
2021/07/10 09:33:23;;;;;;;4.28;3.97;;;;;;;22.97;65.59;95832.13;5020733;28;20213;-85
2021/07/10 09:36:07;;;;;;;5.18;3.67;;;;;;;23.04;61.92;95832.72;5020152;28;20215;-85
2021/07/10 09:38:37;;;;;;;4.00;3.70;;;;;;;23.09;60.70;95826.72;5020353;28;20203;-86
2021/07/10 09:41:10;;;;;;;4.43;4.03;;;;;;;23.31;62.28;95826.63;5020815;28;20227;-85
2021/07/10 09:43:38;;;;;;;4.63;3.90;;;;;;;23.07;61.19;95810.41;5020692;28;20217;-84
2021/07/10 09:46:10;;;;;;;5.05;3.75;;;;;;;23.11;59.15;95808.84;5019935;28;20721;-84
2021/07/10 09:48:40;;;;;;;6.75;4.05;;;;;;;23.09;60.08;95813.59;5020742;28;20202;-83
2021/07/10 09:51:19;;;;;;;3.85;3.55;;;;;;;23.21;58.61;95808.16;5020145;28;20254;-86
2021/07/10 09:53:58;;;;;;;4.97;4.50;;;;;;;23.12;60.09;95807.03;5019726;28;20202;-85
2021/07/10 09:56:25;;;;;;;5.40;4.20;;;;;;;22.94;61.37;95795.84;5019474;28;20237;-85
2021/07/10 09:58:55;;;;;;;5.63;4.82;;;;;;;22.87;61.94;95792.66;5019556;28;20203;-84
2021/07/10 10:01:32;;;;;;;5.03;4.63;;;;;;;23.19;62.68;95786.59;5019654;28;20215;-85
2021/07/10 10:03:59;;;;;;;4.47;4.18;;;;;;;23.45;64.44;95779.72;5018677;28;20237;-84
2021/07/10 10:06:36;;;;;;;3.90;3.60;;;;;;;23.13;58.68;95780.50;5019374;28;20257;-85
2021/07/10 10:09:17;;;;;;;4.07;3.67;;;;;;;23.07;58.33;95777.06;5019072;28;20198;-85
2021/07/10 10:11:53;;;;;;;4.13;3.83;;;;;;;23.26;59.53;95785.38;5019061;28;20219;-85
2021/07/10 10:14:21;;;;;;;6.40;4.70;;;;;;;23.12;59.98;95770.25;5019256;28;20234;-85
2021/07/10 10:16:52;;;;;;;5.07;4.70;;;;;;;23.15;61.79;95772.38;5019224;28;20206;-85
2021/07/10 10:19:21;;;;;;;4.88;4.40;;;;;;;23.40;61.32;95762.06;5019649;28;20207;-84
2021/07/10 10:21:53;;;;;;;5.13;4.63;;;;;;;23.81;59.98;95762.34;5019948;28;20222;-85
2021/07/10 10:24:21;;;;;;;4.38;4.07;;;;;;;23.94;59.51;95770.56;5019616;28;20203;-83
2021/07/10 10:26:48;;;;;;;3.88;3.58;;;;;;;24.13;59.66;95767.50;5019105;28;20206;-85
2021/07/10 10:29:16;;;;;;;4.68;4.32;;;;;;;24.35;57.63;95760.22;5020498;28;20678;-86
2021/07/10 10:31:44;;;;;;;4.20;3.80;;;;;;;24.18;57.71;95754.34;5019639;28;20230;-84
2021/07/10 10:34:11;;;;;;;4.30;3.90;;;;;;;23.87;55.90;95754.22;5018476;28;20223;-85
2021/07/10 10:36:40;;;;;;;4.60;4.20;;;;;;;23.47;58.58;95743.47;5018198;28;20686;-84
2021/07/10 10:39:11;;;;;;;4.32;4.03;;;;;;;23.12;61.60;95754.50;5018599;28;20202;-85
2021/07/10 10:41:40;;;;;;;4.50;4.10;;;;;;;23.39;60.70;95747.34;5018489;28;20239;-85
2021/07/10 10:44:07;;;;;;;4.70;4.28;;;;;;;23.52;59.65;95740.88;5017355;28;20203;-85
2021/07/10 10:46:44;;;;;;;4.80;4.40;;;;;;;23.53;59.03;95734.56;5018336;28;20243;-84
2021/07/10 10:49:35;;;;;;;4.75;4.35;;;;;;;23.55;59.04;95733.28;5018253;28;20221;-85
2021/07/10 10:52:32;;;;;;;4.45;4.15;;;;;;;23.89;59.28;95732.91;5018396;28;20578;-85
2021/07/10 10:55:08;;;;;;;4.57;4.18;;;;;;;24.00;58.98;95732.72;5018377;28;20603;-84
2021/07/10 10:57:43;;;;;;;4.10;3.80;;;;;;;24.39;58.62;95738.41;5016854;28;20198;-85
2021/07/10 11:00:32;;;;;;;4.68;4.38;;;;;;;24.43;56.97;95733.41;5017277;28;20202;-84
2021/07/10 11:03:05;;;;;;;4.75;4.35;;;;;;;24.52;57.04;95731.06;5016906;28;20206;-84
2021/07/10 11:05:59;;;;;;;4.72;4.32;;;;;;;24.74;57.00;95736.88;5017374;28;20209;-84
2021/07/10 11:08:37;;;;;;;5.50;5.00;;;;;;;24.77;54.90;95731.91;5012055;28;20214;-84
2021/07/10 11:11:39;;;;;;;4.75;4.40;;;;;;;24.45;56.61;95734.72;5016559;28;20229;-84
2021/07/10 11:14:16;;;;;;;5.93;5.30;;;;;;;24.79;55.22;95726.38;5015710;28;20248;-85
2021/07/10 11:17:09;;;;;;;5.43;4.95;;;;;;;24.54;57.03;95731.59;5015402;28;20202;-84
2021/07/10 11:19:53;;;;;;;5.90;4.80;;;;;;;24.33;56.04;95720.22;5016051;28;20211;-84
2021/07/10 11:22:56;;;;;;;5.55;5.15;;;;;;;24.25;56.97;95723.34;5015074;28;20206;-84
2021/07/10 11:26:02;;;;;;;5.50;5.10;;;;;;;24.45;56.29;95721.56;5012278;28;20256;-84
2021/07/10 11:28:35;;;;;;;4.95;4.65;;;;;;;24.77;54.87;95716.09;5014069;28;20204;-82
2021/07/10 11:31:05;;;;;;;4.78;4.45;;;;;;;24.99;53.95;95712.44;5013152;28;20230;-86
2021/07/10 11:34:06;;;;;;;5.25;4.85;;;;;;;24.92;54.33;95702.13;5013770;28;20214;-85
2021/07/10 11:36:56;;;;;;;4.72;4.43;;;;;;;24.90;53.61;95696.31;5013711;28;20210;-85
2021/07/10 11:39:38;;;;;;;6.53;4.57;;;;;;;25.05;53.44;95693.72;5014226;28;20221;-84
2021/07/10 11:42:50;;;;;;;4.80;4.40;;;;;;;25.19;53.90;95682.66;5014160;28;20222;-83